WetterOnline ( https://www.wetteronline.de )

Wetter aktuell Pizzo Bianco

Aktuelles Wetter: Pian Rosa (3488m)

6-stündlich | Neueste Meldungen
Ortszeit Temperatur Wetter
Do, 04.03. 13:00 -4.8° C fast wolkenlos
Do, 04.03. 7:00 -7.8° C Nebel
Do, 04.03. 1:00 -6.8° C Nebel (zunehmend)
Mi, 03.03. 19:00 -5.2° C wolkig
Mi, 03.03. 13:00 -3.2° C wolkig
Mi, 03.03. 7:00 -8.0° C leicht bewölkt
Mi, 03.03. 1:00 -7.2° C wolkig
Di, 02.03. 19:00 -6.8° C leicht bewölkt
Ortszeit Temperatur Wetter
Do, 04.03. 17:00 -7.0° C leicht bewölkt
Do, 04.03. 16:55 -7° C leicht bewölkt
Do, 04.03. 16:00 -6.8° C leicht bewölkt
Do, 04.03. 15:55 -7° C leicht bewölkt
Do, 04.03. 15:00 -6.2° C leicht bewölkt
Do, 04.03. 14:55 -6° C leicht bewölkt
Do, 04.03. 14:00 -6.0° C leicht bewölkt
Do, 04.03. 13:55 -6° C leicht bewölkt
Do, 04.03. 13:00 -4.8° C fast wolkenlos
Ortszeit Relative Feuchte Sichtweite
Do, 04.03. 13:00 94% 20 km
Do, 04.03. 7:00 100% 0.8 km
Do, 04.03. 1:00 95% 0.8 km
Mi, 03.03. 19:00 36% 12 km
Mi, 03.03. 13:00 30% 10 km
Mi, 03.03. 7:00 52% 20 km
Mi, 03.03. 1:00 28% 12 km
Di, 02.03. 19:00 14% 20 km
Ortszeit Relative Feuchte Sichtweite
Do, 04.03. 17:00 98% 20 km
Do, 04.03. 16:55 100% >10 km
Do, 04.03. 16:00 100% 20 km
Do, 04.03. 15:55 100% >10 km
Do, 04.03. 15:00 100% >70 km
Do, 04.03. 14:55 100% >10 km
Do, 04.03. 14:00 100% >70 km
Do, 04.03. 13:55 100% >10 km
Do, 04.03. 13:00 94% 20 km
Ortszeit Niederschlagsmenge Niederschlagsart
Do, 04.03. 13:00 0.0 l/m2 in 6 Std. Nebel
Do, 04.03. 7:00 0.0 l/m2 in 12 Std. Nebel
Do, 04.03. 1:00 0.0 l/m2 in 6 Std. Nebel
Mi, 03.03. 19:00 0.0 l/m2 in 12 Std. -
Mi, 03.03. 13:00 keine Meldung -
Mi, 03.03. 7:00 0.0 l/m2 in 12 Std. -
Mi, 03.03. 1:00 0.0 l/m2 in 6 Std. -
Di, 02.03. 19:00 0.0 l/m2 in 12 Std. -
Ortszeit Niederschlagsmenge Niederschlagsart
Do, 04.03. 17:00 keine Meldung -
Do, 04.03. 16:55 keine Meldung -
Do, 04.03. 16:00 keine Meldung -
Do, 04.03. 15:55 keine Meldung -
Do, 04.03. 15:00 keine Meldung -
Do, 04.03. 14:55 keine Meldung -
Do, 04.03. 14:00 keine Meldung -
Do, 04.03. 13:55 keine Meldung -
Do, 04.03. 13:00 keine Meldung -
Ortszeit Stärke Spitze Richtung
km/h Bft. km/h Grad Sektor
Do, 04.03. 13:00 11 2 - 210° SW
Do, 04.03. 7:00 7 2 - - -
Do, 04.03. 1:00 11 2 - 200° S
Mi, 03.03. 19:00 7 2 - 210° SW
Mi, 03.03. 13:00 7 2 - 230° SW
Mi, 03.03. 7:00 11 2 - 70° O
Mi, 03.03. 1:00 17 3 - 60° NO
Di, 02.03. 19:00 9 2 - 60° NO
Ortszeit Stärke Spitze Richtung
km/h Bft. km/h Grad Sektor
Do, 04.03. 17:00 15 3 - 200° S
Do, 04.03. 16:55 15 3 - 200° S
Do, 04.03. 16:00 11 2 - 220° SW
Do, 04.03. 15:55 11 2 - 220° SW
Do, 04.03. 15:00 9 2 - 210° SW
Do, 04.03. 14:55 9 2 - 210° SW
Do, 04.03. 14:00 11 2 - 210° SW
Do, 04.03. 13:55 11 2 - 210° SW
Do, 04.03. 13:00 11 2 - 210° SW
Ortszeit Untergrenze Bedeckung Gattung
total tief tief mittel hoch
Do, 04.03. 13:00 900 m 1/8 1/8 - Ac -
Do, 04.03. 7:00 - 8/8 - - - -
Do, 04.03. 1:00 - 8/8 - - - -
Mi, 03.03. 19:00 300 m 8/8 8/8 - As -
Mi, 03.03. 13:00 1200 m 8/8 4/8 - As -
Mi, 03.03. 7:00 3000 m 5/8 5/8 - - Ci
Mi, 03.03. 1:00 750 m 7/8 3/8 - As Ci
Di, 02.03. 19:00 1200 m 5/8 3/8 - Ac Ci
Ortszeit Bedeckungsgrad in Achtel und Wolkenuntergrenze
Do, 04.03. 17:00 3(150m)
Do, 04.03. 16:55 3-4(150m)
Do, 04.03. 16:00 3(150m)
Do, 04.03. 15:55 3-4(150m)
Do, 04.03. 15:00 3(300m)
Do, 04.03. 14:55 3-4(300m)
Do, 04.03. 14:00 2(600m)
Do, 04.03. 13:55 1-2(600m)
Do, 04.03. 13:00 1(900m)
Ortszeit Stationsdruck (hPa) Tendenz (hPa in 3 Std.)
Do, 04.03. 13:00 664 - 0,9
Do, 04.03. 7:00 665 - 1,0
Do, 04.03. 1:00 668 - 1,3
Mi, 03.03. 19:00 671 - 0,1
Mi, 03.03. 13:00 672 - 0,4
Mi, 03.03. 7:00 672 - 1,0
Mi, 03.03. 1:00 673 - 0,2
Di, 02.03. 19:00 673 + 0,3
Ortszeit Stationsdruck (hPa) Tendenz (hPa in 3 Std.)
Do, 04.03. 17:00 662 - 1,3
Do, 04.03. 16:55 - keine Meldung
Do, 04.03. 16:00 662 - 1,4
Do, 04.03. 15:55 - keine Meldung
Do, 04.03. 15:00 663 - 1,2
Do, 04.03. 14:55 - keine Meldung
Do, 04.03. 14:00 663 - 1,2
Do, 04.03. 13:55 - keine Meldung
Do, 04.03. 13:00 664 - 0,9
Ortszeit Schneehöhe (cm)
Do, 04.03. 13:00 -
Do, 04.03. 7:00 -
Do, 04.03. 1:00 -
Mi, 03.03. 19:00 -
Mi, 03.03. 13:00 -
Mi, 03.03. 7:00 -
Mi, 03.03. 1:00 -
Di, 02.03. 19:00 -
Ortszeit Schneehöhe (cm)
Do, 04.03. 17:00 -
Do, 04.03. 16:55 -
Do, 04.03. 16:00 -
Do, 04.03. 15:55 -
Do, 04.03. 15:00 -
Do, 04.03. 14:55 -
Do, 04.03. 14:00 -
Do, 04.03. 13:55 -
Do, 04.03. 13:00 -
Link zu dieser Seite / Seite empfehlen

Das Wetter in ...